sensor_id;sensor_type;location;lat;lon;timestamp;pressure;altitude;pressure_sealevel;temperature;humidity
35878;BME280;21982;49.804;24.072;2023-03-23T00:01:15;96945.59;;;10.99;48.66
35878;BME280;21982;49.804;24.072;2023-03-23T00:03:49;96884.50;;;10.46;48.63
35878;BME280;21982;49.804;24.072;2023-03-23T00:06:16;96907.13;;;10.55;48.72
35878;BME280;21982;49.804;24.072;2023-03-23T00:08:44;96906.88;;;10.44;48.79
35878;BME280;21982;49.804;24.072;2023-03-23T00:11:16;96998.59;;;10.99;49.08
35878;BME280;21982;49.804;24.072;2023-03-23T00:13:44;96985.31;;;10.92;48.82
35878;BME280;21982;49.804;24.072;2023-03-23T00:16:12;96963.44;;;10.70;49.18
35878;BME280;21982;49.804;24.072;2023-03-23T00:18:50;96787.81;;;9.61;49.25
35878;BME280;21982;49.804;24.072;2023-03-23T00:21:20;96986.44;;;10.77;49.30
35878;BME280;21982;49.804;24.072;2023-03-23T00:23:46;96900.59;;;10.17;49.32
35878;BME280;21982;49.804;24.072;2023-03-23T00:26:12;96911.00;;;10.18;49.78
35878;BME280;21982;49.804;24.072;2023-03-23T00:28:40;96828.31;;;9.68;49.30
35878;BME280;21982;49.804;24.072;2023-03-23T00:31:07;96871.16;;;9.92;49.54
35878;BME280;21982;49.804;24.072;2023-03-23T00:33:35;96922.84;;;9.94;49.60
35878;BME280;21982;49.804;24.072;2023-03-23T00:36:04;96979.41;;;10.49;49.34
35878;BME280;21982;49.804;24.072;2023-03-23T00:38:30;96692.03;;;8.41;50.07
35878;BME280;21982;49.804;24.072;2023-03-23T00:40:56;96987.09;;;10.37;49.71
35878;BME280;21982;49.804;24.072;2023-03-23T00:43:23;96719.94;;;8.78;50.19
35878;BME280;21982;49.804;24.072;2023-03-23T00:45:54;96977.66;;;10.28;50.35
35878;BME280;21982;49.804;24.072;2023-03-23T00:48:20;96899.59;;;9.83;50.41
35878;BME280;21982;49.804;24.072;2023-03-23T00:50:46;96969.84;;;10.20;50.41
35878;BME280;21982;49.804;24.072;2023-03-23T00:53:11;96937.97;;;10.00;50.02
35878;BME280;21982;49.804;24.072;2023-03-23T00:55:37;96967.75;;;10.16;50.71
35878;BME280;21982;49.804;24.072;2023-03-23T00:58:02;96870.22;;;9.44;50.19
35878;BME280;21982;49.804;24.072;2023-03-23T01:00:27;96962.84;;;10.13;50.86
35878;BME280;21982;49.804;24.072;2023-03-23T01:02:54;96956.56;;;10.14;50.18
35878;BME280;21982;49.804;24.072;2023-03-23T01:05:20;96908.34;;;9.84;50.76
35878;BME280;21982;49.804;24.072;2023-03-23T01:07:46;96838.66;;;9.35;50.50
35878;BME280;21982;49.804;24.072;2023-03-23T01:10:12;96956.75;;;10.12;50.57
35878;BME280;21982;49.804;24.072;2023-03-23T01:12:42;96928.53;;;9.91;50.58
35878;BME280;21982;49.804;24.072;2023-03-23T01:15:08;96923.19;;;9.85;50.64
35878;BME280;21982;49.804;24.072;2023-03-23T01:17:33;96956.69;;;10.05;50.92
35878;BME280;21982;49.804;24.072;2023-03-23T01:19:58;96902.84;;;9.57;50.85
35878;BME280;21982;49.804;24.072;2023-03-23T01:22:24;96948.16;;;10.03;50.99
35878;BME280;21982;49.804;24.072;2023-03-23T01:24:50;96491.56;;;7.06;50.70
35878;BME280;21982;49.804;24.072;2023-03-23T01:27:15;96950.06;;;9.88;51.31
35878;BME280;21982;49.804;24.072;2023-03-23T01:29:40;96932.31;;;9.82;50.72
35878;BME280;21982;49.804;24.072;2023-03-23T01:32:06;96957.69;;;9.98;50.78
35878;BME280;21982;49.804;24.072;2023-03-23T01:34:31;96863.19;;;9.29;50.84
35878;BME280;21982;49.804;24.072;2023-03-23T01:36:57;96952.78;;;9.95;51.16
35878;BME280;21982;49.804;24.072;2023-03-23T01:39:23;96945.22;;;9.92;50.92
35878;BME280;21982;49.804;24.072;2023-03-23T01:41:48;96954.97;;;9.91;51.11
35878;BME280;21982;49.804;24.072;2023-03-23T01:46:42;96811.13;;;9.02;51.22
35878;BME280;21982;49.804;24.072;2023-03-23T01:49:11;96949.25;;;9.88;51.35
35878;BME280;21982;49.804;24.072;2023-03-23T01:52:05;96849.53;;;9.26;50.99
35878;BME280;21982;49.804;24.072;2023-03-23T01:54:34;96944.28;;;9.78;51.28
35878;BME280;21982;49.804;24.072;2023-03-23T01:57:04;96945.50;;;9.75;51.83
35878;BME280;21982;49.804;24.072;2023-03-23T01:59:32;96936.94;;;9.73;51.90
35878;BME280;21982;49.804;24.072;2023-03-23T02:01:58;96659.66;;;7.90;51.99
35878;BME280;21982;49.804;24.072;2023-03-23T02:04:27;96851.25;;;9.12;51.89
35878;BME280;21982;49.804;24.072;2023-03-23T02:06:54;96942.56;;;9.64;51.67
35878;BME280;21982;49.804;24.072;2023-03-23T02:09:21;96935.06;;;9.46;51.97
35878;BME280;21982;49.804;24.072;2023-03-23T02:11:48;96941.06;;;9.55;51.85
35878;BME280;21982;49.804;24.072;2023-03-23T02:14:15;96764.81;;;8.35;52.51
35878;BME280;21982;49.804;24.072;2023-03-23T02:19:49;96939.66;;;9.37;51.70
35878;BME280;21982;49.804;24.072;2023-03-23T02:22:52;96937.44;;;9.34;52.21
35878;BME280;21982;49.804;24.072;2023-03-23T02:41:10;96700.84;;;7.76;52.65
35878;BME280;21982;49.804;24.072;2023-03-23T02:43:40;96677.22;;;7.68;52.73
35878;BME280;21982;49.804;24.072;2023-03-23T02:46:09;96930.38;;;9.20;53.16
35878;BME280;21982;49.804;24.072;2023-03-23T02:48:36;96890.88;;;8.91;53.11
35878;BME280;21982;49.804;24.072;2023-03-23T02:51:04;96884.97;;;8.89;53.16
35878;BME280;21982;49.804;24.072;2023-03-23T02:53:33;96934.84;;;9.20;53.26
35878;BME280;21982;49.804;24.072;2023-03-23T02:56:02;96825.72;;;8.55;53.13
35878;BME280;21982;49.804;24.072;2023-03-23T02:58:30;96802.38;;;8.37;53.36
35878;BME280;21982;49.804;24.072;2023-03-23T03:00:56;96790.94;;;8.30;53.44
35878;BME280;21982;49.804;24.072;2023-03-23T03:03:23;96836.28;;;8.55;53.26
35878;BME280;21982;49.804;24.072;2023-03-23T03:08:27;96940.56;;;9.23;53.89
35878;BME280;21982;49.804;24.072;2023-03-23T03:11:14;96867.34;;;8.74;53.71
35878;BME280;21982;49.804;24.072;2023-03-23T03:19:31;96933.28;;;9.25;53.81
35878;BME280;21982;49.804;24.072;2023-03-23T03:21:58;96926.59;;;9.29;54.15
35878;BME280;21982;49.804;24.072;2023-03-23T03:24:26;96927.69;;;9.35;54.00
35878;BME280;21982;49.804;24.072;2023-03-23T03:26:54;96929.72;;;9.39;53.67
35878;BME280;21982;49.804;24.072;2023-03-23T03:29:29;96935.28;;;9.45;53.92
35878;BME280;21982;49.804;24.072;2023-03-23T03:31:58;96870.38;;;8.93;54.16
35878;BME280;21982;49.804;24.072;2023-03-23T03:34:25;96944.00;;;9.45;53.99
35878;BME280;21982;49.804;24.072;2023-03-23T03:36:53;96937.72;;;9.46;53.75
35878;BME280;21982;49.804;24.072;2023-03-23T03:39:20;96885.84;;;9.17;54.20
35878;BME280;21982;49.804;24.072;2023-03-23T03:41:47;96944.00;;;9.45;53.82
35878;BME280;21982;49.804;24.072;2023-03-23T03:44:13;96939.91;;;9.43;53.81
35878;BME280;21982;49.804;24.072;2023-03-23T03:46:38;96908.34;;;9.13;53.78
35878;BME280;21982;49.804;24.072;2023-03-23T03:49:06;96867.75;;;8.93;53.91
35878;BME280;21982;49.804;24.072;2023-03-23T03:51:32;96915.78;;;9.24;54.72
35878;BME280;21982;49.804;24.072;2023-03-23T03:53:58;96945.22;;;9.43;54.28
35878;BME280;21982;49.804;24.072;2023-03-23T03:56:24;96945.03;;;9.44;54.35
35878;BME280;21982;49.804;24.072;2023-03-23T03:58:51;96898.84;;;9.19;54.17
35878;BME280;21982;49.804;24.072;2023-03-23T04:01:19;96913.41;;;9.29;54.57
35878;BME280;21982;49.804;24.072;2023-03-23T04:03:47;96933.53;;;9.30;54.76
35878;BME280;21982;49.804;24.072;2023-03-23T04:06:13;96905.97;;;9.18;54.81
35878;BME280;21982;49.804;24.072;2023-03-23T04:08:40;96943.19;;;9.45;54.41
35878;BME280;21982;49.804;24.072;2023-03-23T04:11:07;96819.34;;;8.64;54.95
35878;BME280;21982;49.804;24.072;2023-03-23T04:13:33;96939.47;;;9.39;54.64
35878;BME280;21982;49.804;24.072;2023-03-23T04:15:58;96947.41;;;9.39;54.34
35878;BME280;21982;49.804;24.072;2023-03-23T04:18:23;96944.75;;;9.39;54.41
35878;BME280;21982;49.804;24.072;2023-03-23T04:20:51;96904.44;;;9.09;54.30
35878;BME280;21982;49.804;24.072;2023-03-23T04:23:18;96942.75;;;9.41;54.33
35878;BME280;21982;49.804;24.072;2023-03-23T04:25:52;96796.81;;;8.47;54.78
35878;BME280;21982;49.804;24.072;2023-03-23T04:28:18;96960.81;;;9.37;54.65
35878;BME280;21982;49.804;24.072;2023-03-23T04:30:49;96952.28;;;9.35;55.11
35878;BME280;21982;49.804;24.072;2023-03-23T04:33:19;96791.00;;;8.37;54.90
35878;BME280;21982;49.804;24.072;2023-03-23T04:35:45;96876.25;;;8.73;55.13
35878;BME280;21982;49.804;24.072;2023-03-23T04:38:15;96948.47;;;9.45;54.78
35878;BME280;21982;49.804;24.072;2023-03-23T04:40:42;96954.41;;;9.47;54.89
35878;BME280;21982;49.804;24.072;2023-03-23T04:43:08;96772.47;;;8.30;54.98
35878;BME280;21982;49.804;24.072;2023-03-23T04:45:34;96901.19;;;9.07;55.10
35878;BME280;21982;49.804;24.072;2023-03-23T04:48:03;96897.16;;;9.11;54.53
35878;BME280;21982;49.804;24.072;2023-03-23T04:50:31;96944.84;;;9.46;54.79
35878;BME280;21982;49.804;24.072;2023-03-23T04:52:58;96754.41;;;8.13;54.87
35878;BME280;21982;49.804;24.072;2023-03-23T04:55:25;96952.13;;;9.44;54.81
35878;BME280;21982;49.804;24.072;2023-03-23T04:57:51;96827.06;;;8.66;55.29
35878;BME280;21982;49.804;24.072;2023-03-23T05:00:17;96856.78;;;8.74;55.04
35878;BME280;21982;49.804;24.072;2023-03-23T05:02:44;96950.38;;;9.51;54.97
35878;BME280;21982;49.804;24.072;2023-03-23T05:05:13;96956.16;;;9.61;55.27
35878;BME280;21982;49.804;24.072;2023-03-23T05:07:40;96825.78;;;9.04;54.85
35878;BME280;21982;49.804;24.072;2023-03-23T05:10:07;96948.81;;;10.12;54.35
35878;BME280;21982;49.804;24.072;2023-03-23T05:12:33;96957.50;;;10.27;54.15
35878;BME280;21982;49.804;24.072;2023-03-23T05:14:58;96734.50;;;8.95;53.77
35878;BME280;21982;49.804;24.072;2023-03-23T05:17:24;96887.28;;;9.97;53.80
35878;BME280;21982;49.804;24.072;2023-03-23T05:19:50;96932.16;;;10.18;53.84
35878;BME280;21982;49.804;24.072;2023-03-23T05:22:16;96920.59;;;10.19;53.75
35878;BME280;21982;49.804;24.072;2023-03-23T05:24:42;96949.25;;;10.50;53.50
35878;BME280;21982;49.804;24.072;2023-03-23T05:27:09;96800.63;;;9.64;53.51
35878;BME280;21982;49.804;24.072;2023-03-23T05:29:35;96947.28;;;10.59;53.45
35878;BME280;21982;49.804;24.072;2023-03-23T05:32:06;96953.81;;;10.63;53.27
35878;BME280;21982;49.804;24.072;2023-03-23T05:34:33;96858.81;;;10.05;53.51
35878;BME280;21982;49.804;24.072;2023-03-23T05:36:59;96952.22;;;10.68;53.68
35878;BME280;21982;49.804;24.072;2023-03-23T05:39:26;96955.50;;;10.70;53.72
35878;BME280;21982;49.804;24.072;2023-03-23T05:41:52;96919.13;;;10.51;53.52
35878;BME280;21982;49.804;24.072;2023-03-23T05:44:18;96921.34;;;10.48;53.28
35878;BME280;21982;49.804;24.072;2023-03-23T05:46:43;96916.69;;;10.50;53.50
35878;BME280;21982;49.804;24.072;2023-03-23T05:49:08;96952.66;;;10.79;53.50
35878;BME280;21982;49.804;24.072;2023-03-23T05:51:34;96942.00;;;10.65;53.36
35878;BME280;21982;49.804;24.072;2023-03-23T05:54:00;96733.59;;;9.44;53.16
35878;BME280;21982;49.804;24.072;2023-03-23T05:56:25;96932.06;;;10.74;53.22
35878;BME280;21982;49.804;24.072;2023-03-23T05:58:51;96878.75;;;10.36;53.29
35878;BME280;21982;49.804;24.072;2023-03-23T06:01:17;96966.00;;;11.05;53.13
35878;BME280;21982;49.804;24.072;2023-03-23T06:03:43;96959.28;;;11.16;53.29
35878;BME280;21982;49.804;24.072;2023-03-23T06:06:11;96952.41;;;11.28;53.03
35878;BME280;21982;49.804;24.072;2023-03-23T06:08:36;96909.53;;;11.11;52.71
35878;BME280;21982;49.804;24.072;2023-03-23T06:11:03;96853.38;;;10.55;52.45
35878;BME280;21982;49.804;24.072;2023-03-23T06:13:28;96956.09;;;11.40;52.72
35878;BME280;21982;49.804;24.072;2023-03-23T06:15:57;96951.63;;;11.40;52.58
35878;BME280;21982;49.804;24.072;2023-03-23T06:18:23;96883.03;;;10.91;52.79
35878;BME280;21982;49.804;24.072;2023-03-23T06:20:49;96786.69;;;10.25;52.76
35878;BME280;21982;49.804;24.072;2023-03-23T06:23:14;96905.59;;;10.74;53.20
35878;BME280;21982;49.804;24.072;2023-03-23T06:25:40;96923.03;;;11.29;52.98
35878;BME280;21982;49.804;24.072;2023-03-23T06:28:05;96839.81;;;10.91;52.94
35878;BME280;21982;49.804;24.072;2023-03-23T06:30:31;96930.63;;;11.85;52.26
35878;BME280;21982;49.804;24.072;2023-03-23T06:32:57;96838.63;;;11.66;51.90
35878;BME280;21982;49.804;24.072;2023-03-23T06:35:23;96953.19;;;12.60;51.47
35878;BME280;21982;49.804;24.072;2023-03-23T06:37:48;96963.53;;;12.82;51.35
35878;BME280;21982;49.804;24.072;2023-03-23T06:40:13;96964.25;;;13.78;50.22
35878;BME280;21982;49.804;24.072;2023-03-23T06:42:39;96899.41;;;14.16;48.86
35878;BME280;21982;49.804;24.072;2023-03-23T06:45:05;96900.53;;;14.26;48.25
35878;BME280;21982;49.804;24.072;2023-03-23T06:47:33;96967.25;;;14.74;47.90
35878;BME280;21982;49.804;24.072;2023-03-23T06:50:00;96851.44;;;14.89;47.59
35878;BME280;21982;49.804;24.072;2023-03-23T06:52:25;96763.88;;;15.39;45.89
35878;BME280;21982;49.804;24.072;2023-03-23T06:54:51;96894.13;;;16.30;45.10
35878;BME280;21982;49.804;24.072;2023-03-23T06:57:17;96949.19;;;16.20;45.57
35878;BME280;21982;49.804;24.072;2023-03-23T06:59:43;96891.91;;;15.27;45.99
35878;BME280;21982;49.804;24.072;2023-03-23T07:02:10;96940.03;;;15.21;46.47
35878;BME280;21982;49.804;24.072;2023-03-23T07:04:40;96956.72;;;14.98;46.89
35878;BME280;21982;49.804;24.072;2023-03-23T07:07:10;96951.63;;;14.78;47.50
35878;BME280;21982;49.804;24.072;2023-03-23T07:09:39;96888.59;;;14.11;47.82
35878;BME280;21982;49.804;24.072;2023-03-23T07:12:05;96948.75;;;14.43;48.01
35878;BME280;21982;49.804;24.072;2023-03-23T07:14:31;96869.47;;;13.77;48.16
35878;BME280;21982;49.804;24.072;2023-03-23T07:16:56;96950.22;;;14.57;47.96
35878;BME280;21982;49.804;24.072;2023-03-23T07:19:21;96933.06;;;14.90;47.26
35878;BME280;21982;49.804;24.072;2023-03-23T07:21:47;96954.69;;;15.71;46.50
35878;BME280;21982;49.804;24.072;2023-03-23T07:24:12;96888.09;;;16.12;45.68
35878;BME280;21982;49.804;24.072;2023-03-23T07:26:41;96832.78;;;16.35;44.50
35878;BME280;21982;49.804;24.072;2023-03-23T07:29:09;96953.31;;;17.83;43.36
35878;BME280;21982;49.804;24.072;2023-03-23T07:31:35;96868.19;;;18.23;42.23
35878;BME280;21982;49.804;24.072;2023-03-23T07:34:01;96836.91;;;18.67;40.67
35878;BME280;21982;49.804;24.072;2023-03-23T07:36:28;96955.72;;;19.87;40.24
35878;BME280;21982;49.804;24.072;2023-03-23T07:38:53;96968.47;;;20.34;39.38
35878;BME280;21982;49.804;24.072;2023-03-23T07:41:20;96874.16;;;20.03;38.95
35878;BME280;21982;49.804;24.072;2023-03-23T07:43:45;96982.69;;;20.66;38.42
35878;BME280;21982;49.804;24.072;2023-03-23T07:46:11;96879.41;;;19.88;38.42
35878;BME280;21982;49.804;24.072;2023-03-23T07:48:38;96973.28;;;20.32;38.56
35878;BME280;21982;49.804;24.072;2023-03-23T07:51:04;96909.09;;;20.03;38.31
35878;BME280;21982;49.804;24.072;2023-03-23T07:53:30;96966.66;;;20.87;37.72
35878;BME280;21982;49.804;24.072;2023-03-23T07:55:57;96960.72;;;21.52;37.29
35878;BME280;21982;49.804;24.072;2023-03-23T07:58:23;96875.34;;;21.78;36.51
35878;BME280;21982;49.804;24.072;2023-03-23T08:00:54;96949.91;;;22.94;35.54
35878;BME280;21982;49.804;24.072;2023-03-23T08:03:22;96884.03;;;22.95;34.60
35878;BME280;21982;49.804;24.072;2023-03-23T08:05:51;96897.28;;;23.46;34.23
35878;BME280;21982;49.804;24.072;2023-03-23T08:08:16;96973.13;;;23.65;34.14
35878;BME280;21982;49.804;24.072;2023-03-23T08:10:43;96954.53;;;22.89;34.66
35878;BME280;21982;49.804;24.072;2023-03-23T08:13:09;96821.44;;;21.32;34.99
35878;BME280;21982;49.804;24.072;2023-03-23T08:15:35;96874.25;;;21.59;35.56
35878;BME280;21982;49.804;24.072;2023-03-23T08:18:03;96737.56;;;20.58;35.65
35878;BME280;21982;49.804;24.072;2023-03-23T08:20:28;96950.78;;;21.48;36.06
35878;BME280;21982;49.804;24.072;2023-03-23T08:22:55;96952.25;;;21.18;36.55
35878;BME280;21982;49.804;24.072;2023-03-23T08:25:22;96930.66;;;20.98;36.67
35878;BME280;21982;49.804;24.072;2023-03-23T08:27:48;96940.63;;;20.50;36.88
35878;BME280;21982;49.804;24.072;2023-03-23T08:30:16;96909.06;;;19.98;37.68
35878;BME280;21982;49.804;24.072;2023-03-23T08:32:42;96948.25;;;19.94;38.02
35878;BME280;21982;49.804;24.072;2023-03-23T08:35:11;96961.03;;;19.82;38.43
35878;BME280;21982;49.804;24.072;2023-03-23T08:37:38;96903.28;;;19.53;38.39
35878;BME280;21982;49.804;24.072;2023-03-23T08:40:07;96940.72;;;19.91;38.43
35878;BME280;21982;49.804;24.072;2023-03-23T08:42:35;96732.50;;;18.88;38.60
35878;BME280;21982;49.804;24.072;2023-03-23T08:45:00;96947.47;;;21.30;37.26
35878;BME280;21982;49.804;24.072;2023-03-23T08:47:26;96811.19;;;21.24;35.95
35878;BME280;21982;49.804;24.072;2023-03-23T08:49:52;96868.59;;;22.21;35.41
35878;BME280;21982;49.804;24.072;2023-03-23T08:52:19;96948.53;;;23.61;34.34
35878;BME280;21982;49.804;24.072;2023-03-23T08:54:45;96870.53;;;23.45;34.15
35878;BME280;21982;49.804;24.072;2023-03-23T08:57:13;96952.03;;;24.40;33.83
35878;BME280;21982;49.804;24.072;2023-03-23T08:59:39;96885.25;;;23.67;33.21
35878;BME280;21982;49.804;24.072;2023-03-23T09:02:11;96864.78;;;23.12;34.02
35878;BME280;21982;49.804;24.072;2023-03-23T09:04:40;96962.47;;;23.29;34.25
35878;BME280;21982;49.804;24.072;2023-03-23T09:07:09;96910.09;;;22.51;34.70
35878;BME280;21982;49.804;24.072;2023-03-23T09:09:34;96964.28;;;22.54;35.10
35878;BME280;21982;49.804;24.072;2023-03-23T09:12:00;96813.91;;;21.39;35.26
35878;BME280;21982;49.804;24.072;2023-03-23T09:14:26;96827.09;;;21.71;35.37
35878;BME280;21982;49.804;24.072;2023-03-23T09:16:52;96958.22;;;23.13;34.73
35878;BME280;21982;49.804;24.072;2023-03-23T09:19:17;96923.03;;;23.23;34.49
35878;BME280;21982;49.804;24.072;2023-03-23T09:21:43;96965.25;;;24.08;33.83
35878;BME280;21982;49.804;24.072;2023-03-23T09:24:10;96945.69;;;24.79;33.21
35878;BME280;21982;49.804;24.072;2023-03-23T09:26:36;96914.50;;;25.29;32.28
35878;BME280;21982;49.804;24.072;2023-03-23T09:29:02;96881.75;;;24.59;32.07
35878;BME280;21982;49.804;24.072;2023-03-23T09:31:27;96928.38;;;24.51;32.43
35878;BME280;21982;49.804;24.072;2023-03-23T09:33:54;96939.41;;;24.59;32.09
35878;BME280;21982;49.804;24.072;2023-03-23T09:36:22;96955.41;;;24.56;32.00
35878;BME280;21982;49.804;24.072;2023-03-23T09:38:48;96951.00;;;24.31;32.19
35878;BME280;21982;49.804;24.072;2023-03-23T09:47:20;96949.41;;;22.77;33.15
35878;BME280;21982;49.804;24.072;2023-03-23T09:52:19;96828.91;;;21.15;34.00
35878;BME280;21982;49.804;24.072;2023-03-23T09:54:53;96909.56;;;21.88;33.89
35878;BME280;21982;49.804;24.072;2023-03-23T09:59:59;96903.06;;;21.53;34.31
35878;BME280;21982;49.804;24.072;2023-03-23T10:05:29;96945.34;;;21.32;34.72
35878;BME280;21982;49.804;24.072;2023-03-23T10:07:56;96940.66;;;21.18;34.68
35878;BME280;21982;49.804;24.072;2023-03-23T10:10:29;96920.97;;;21.02;34.95
35878;BME280;21982;49.804;24.072;2023-03-23T10:15:42;96869.47;;;20.73;35.13
35878;BME280;21982;49.804;24.072;2023-03-23T10:18:26;96901.06;;;21.03;34.98
35878;BME280;21982;49.804;24.072;2023-03-23T10:20:59;96925.13;;;21.35;34.71
35878;BME280;21982;49.804;24.072;2023-03-23T10:26:25;96908.50;;;21.68;34.35
35878;BME280;21982;49.804;24.072;2023-03-23T10:29:34;96903.09;;;21.68;34.22
35878;BME280;21982;49.804;24.072;2023-03-23T10:32:14;96911.19;;;21.63;34.22
35878;BME280;21982;49.804;24.072;2023-03-23T10:34:57;96901.22;;;21.64;34.01
35878;BME280;21982;49.804;24.072;2023-03-23T10:37:37;96857.03;;;21.70;33.56
35878;BME280;21982;49.804;24.072;2023-03-23T10:40:06;96875.59;;;21.92;33.51
35878;BME280;21982;49.804;24.072;2023-03-23T10:42:38;96890.16;;;21.91;33.43
35878;BME280;21982;49.804;24.072;2023-03-23T10:45:30;96904.97;;;22.34;32.72
35878;BME280;21982;49.804;24.072;2023-03-23T10:48:18;96910.22;;;22.95;32.71
35878;BME280;21982;49.804;24.072;2023-03-23T10:50:49;96879.16;;;23.47;31.51
35878;BME280;21982;49.804;24.072;2023-03-23T10:53:19;96911.38;;;24.45;31.22
35878;BME280;21982;49.804;24.072;2023-03-23T10:55:47;96806.44;;;24.13;30.33
35878;BME280;21982;49.804;24.072;2023-03-23T10:58:38;96896.81;;;25.13;30.48
35878;BME280;21982;49.804;24.072;2023-03-23T11:01:10;96915.69;;;25.60;29.13
35878;BME280;21982;49.804;24.072;2023-03-23T11:03:41;96908.28;;;25.28;29.77
35878;BME280;21982;49.804;24.072;2023-03-23T11:06:09;96830.19;;;25.12;29.57
35878;BME280;21982;49.804;24.072;2023-03-23T11:08:48;96910.44;;;26.34;28.86
35878;BME280;21982;49.804;24.072;2023-03-23T11:11:17;96894.22;;;26.89;28.39
35878;BME280;21982;49.804;24.072;2023-03-23T11:13:45;96863.22;;;26.90;27.78
35878;BME280;21982;49.804;24.072;2023-03-23T11:16:26;96897.53;;;27.13;27.43
35878;BME280;21982;49.804;24.072;2023-03-23T11:19:11;96822.41;;;26.67;27.20
35878;BME280;21982;49.804;24.072;2023-03-23T11:21:37;96852.88;;;26.64;26.89
35878;BME280;21982;49.804;24.072;2023-03-23T11:24:05;96869.66;;;26.94;27.23
35878;BME280;21982;49.804;24.072;2023-03-23T11:26:33;96854.25;;;27.03;26.91
35878;BME280;21982;49.804;24.072;2023-03-23T11:29:02;96885.22;;;27.29;26.42
35878;BME280;21982;49.804;24.072;2023-03-23T11:31:32;96873.88;;;27.50;26.24
35878;BME280;21982;49.804;24.072;2023-03-23T11:34:04;96763.25;;;26.64;25.99
35878;BME280;21982;49.804;24.072;2023-03-23T11:36:40;96843.03;;;26.96;26.40
35878;BME280;21982;49.804;24.072;2023-03-23T11:39:25;96746.66;;;26.52;26.29
35878;BME280;21982;49.804;24.072;2023-03-23T11:41:52;96868.66;;;26.62;26.44
35878;BME280;21982;49.804;24.072;2023-03-23T11:44:17;96860.00;;;26.47;26.54
35878;BME280;21982;49.804;24.072;2023-03-23T11:49:35;96869.97;;;27.06;26.40
35878;BME280;21982;49.804;24.072;2023-03-23T11:54:54;96690.97;;;25.86;25.90
35878;BME280;21982;49.804;24.072;2023-03-23T11:57:21;96406.88;;;24.14;25.98
35878;BME280;21982;49.804;24.072;2023-03-23T11:59:49;96820.97;;;26.84;25.98
35878;BME280;21982;49.804;24.072;2023-03-23T12:05:32;96871.56;;;27.07;25.91
35878;BME280;21982;49.804;24.072;2023-03-23T12:13:53;96809.69;;;26.35;26.63
35878;BME280;21982;49.804;24.072;2023-03-23T12:19:27;96828.81;;;25.84;27.07
35878;BME280;21982;49.804;24.072;2023-03-23T12:36:37;96805.94;;;24.06;28.34
35878;BME280;21982;49.804;24.072;2023-03-23T12:50:31;96718.63;;;22.80;29.38
35878;BME280;21982;49.804;24.072;2023-03-23T12:53:06;96819.97;;;23.11;29.85
35878;BME280;21982;49.804;24.072;2023-03-23T12:55:45;96644.09;;;21.80;30.04
35878;BME280;21982;49.804;24.072;2023-03-23T12:58:28;96784.50;;;22.73;30.31
35878;BME280;21982;49.804;24.072;2023-03-23T13:01:25;96780.09;;;23.32;30.10
35878;BME280;21982;49.804;24.072;2023-03-23T13:06:36;96760.97;;;24.82;28.16
35878;BME280;21982;49.804;24.072;2023-03-23T13:25:44;96770.91;;;24.25;28.52
35878;BME280;21982;49.804;24.072;2023-03-23T13:31:14;96773.34;;;22.36;30.00
35878;BME280;21982;49.804;24.072;2023-03-23T13:33:52;96771.28;;;21.87;30.52
35878;BME280;21982;49.804;24.072;2023-03-23T13:39:52;96768.41;;;21.48;31.26
35878;BME280;21982;49.804;24.072;2023-03-23T13:42:23;96416.00;;;19.03;31.77
35878;BME280;21982;49.804;24.072;2023-03-23T13:47:24;96776.66;;;20.96;31.98
35878;BME280;21982;49.804;24.072;2023-03-23T13:50:01;96681.75;;;20.07;32.21
35878;BME280;21982;49.804;24.072;2023-03-23T14:00:35;96764.44;;;20.43;32.67
35878;BME280;21982;49.804;24.072;2023-03-23T14:05:48;96469.88;;;18.49;32.68
35878;BME280;21982;49.804;24.072;2023-03-23T14:11:01;96756.78;;;20.24;32.86
35878;BME280;21982;49.804;24.072;2023-03-23T14:16:27;96789.25;;;20.07;32.90
35878;BME280;21982;49.804;24.072;2023-03-23T14:18:58;96652.03;;;19.30;33.18
35878;BME280;21982;49.804;24.072;2023-03-23T14:21:48;96766.03;;;19.91;33.16
35878;BME280;21982;49.804;24.072;2023-03-23T14:26:49;96768.38;;;19.72;33.73
35878;BME280;21982;49.804;24.072;2023-03-23T14:29:18;96770.25;;;19.77;33.65
35878;BME280;21982;49.804;24.072;2023-03-23T14:31:44;96559.91;;;18.45;34.06
35878;BME280;21982;49.804;24.072;2023-03-23T14:34:34;96799.28;;;19.80;33.82
35878;BME280;21982;49.804;24.072;2023-03-23T14:37:00;96664.25;;;19.05;33.78
35878;BME280;21982;49.804;24.072;2023-03-23T14:39:31;96763.00;;;19.72;33.96
35878;BME280;21982;49.804;24.072;2023-03-23T14:42:05;96757.88;;;19.71;33.91
35878;BME280;21982;49.804;24.072;2023-03-23T14:44:38;96667.78;;;19.16;33.81
35878;BME280;21982;49.804;24.072;2023-03-23T14:47:09;96735.84;;;19.69;34.00
35878;BME280;21982;49.804;24.072;2023-03-23T14:49:38;96763.81;;;19.78;33.96
35878;BME280;21982;49.804;24.072;2023-03-23T14:52:10;96657.50;;;19.03;33.98
35878;BME280;21982;49.804;24.072;2023-03-23T14:54:38;96624.94;;;18.89;34.08
35878;BME280;21982;49.804;24.072;2023-03-23T14:57:27;96671.59;;;19.25;34.03
35878;BME280;21982;49.804;24.072;2023-03-23T14:59:53;96743.84;;;19.64;34.01
35878;BME280;21982;49.804;24.072;2023-03-23T15:02:27;96749.75;;;19.61;34.03
35878;BME280;21982;49.804;24.072;2023-03-23T15:04:57;96736.06;;;19.62;34.14
35878;BME280;21982;49.804;24.072;2023-03-23T15:07:29;96597.53;;;18.87;33.99
35878;BME280;21982;49.804;24.072;2023-03-23T15:09:55;96544.38;;;19.26;33.27
35878;BME280;21982;49.804;24.072;2023-03-23T15:12:24;96753.41;;;20.44;33.11
35878;BME280;21982;49.804;24.072;2023-03-23T15:14:54;96377.56;;;17.61;33.57
35878;BME280;21982;49.804;24.072;2023-03-23T15:17:23;96670.09;;;19.45;33.80
35878;BME280;21982;49.804;24.072;2023-03-23T15:19:50;96630.91;;;19.43;33.49
35878;BME280;21982;49.804;24.072;2023-03-23T15:22:26;96739.81;;;20.19;33.34